Time;durP1;ratioP1;P1;durP2;ratioP2;P2;SDS_P1;SDS_P2;PMS_P1;PMS_P2;Temp;Humidity;BMP_temperature;BMP_pressure;BME280_temperature;BME280_humidity;BME280_pressure;Samples;Min_cycle;Max_cycle;Signal;HPM_P1;HPM_P2
2021/07/19 00:02:02;;;;;;;17.80;9.20;;;23.10;50.90;;;;;;4994472;28;20486;-88
2021/07/19 00:04:31;;;;;;;18.60;8.87;;;23.20;50.30;;;;;;4991786;28;20813;-89
2021/07/19 00:06:58;;;;;;;17.00;9.90;;;23.30;49.80;;;;;;4995199;28;20655;-88
2021/07/19 00:09:25;;;;;;;15.87;8.87;;;23.30;50.00;;;;;;4994417;28;20550;-88
2021/07/19 00:11:51;;;;;;;21.33;9.20;;;23.40;49.50;;;;;;4994904;28;20892;-88
2021/07/19 00:14:20;;;;;;;21.50;8.60;;;23.10;50.30;;;;;;4994077;28;20566;-88
2021/07/19 00:16:47;;;;;;;15.30;7.70;;;22.90;50.80;;;;;;4993952;28;20514;-88
2021/07/19 00:19:14;;;;;;;20.20;8.90;;;22.90;50.40;;;;;;4994372;28;20466;-88
2021/07/19 00:21:41;;;;;;;17.43;8.67;;;22.70;51.10;;;;;;4995357;28;20455;-88
2021/07/19 00:24:08;;;;;;;16.30;8.30;;;22.50;51.30;;;;;;4994500;28;20838;-88
2021/07/19 00:26:35;;;;;;;12.17;8.33;;;22.70;50.50;;;;;;4994170;28;20514;-88
2021/07/19 00:29:02;;;;;;;14.97;9.60;;;23.00;50.10;;;;;;4994766;28;20498;-88
2021/07/19 00:31:32;;;;;;;18.30;8.33;;;23.00;49.80;;;;;;4994721;28;20467;-88
2021/07/19 00:33:59;;;;;;;16.67;8.73;;;22.90;50.10;;;;;;4993470;28;20494;-88
2021/07/19 00:36:26;;;;;;;14.07;9.00;;;22.70;50.40;;;;;;4994493;28;20531;-89
2021/07/19 00:38:53;;;;;;;12.57;7.93;;;22.80;50.50;;;;;;4992933;28;20573;-88
2021/07/19 00:41:21;;;;;;;21.63;8.50;;;22.90;50.20;;;;;;4994243;28;20459;-88
2021/07/19 00:43:48;;;;;;;24.70;11.50;;;22.70;50.70;;;;;;4984129;28;20961;-89
2021/07/19 00:46:15;;;;;;;23.33;11.70;;;22.70;50.70;;;;;;5003611;28;20546;-88
2021/07/19 00:48:44;;;;;;;15.13;10.00;;;22.60;50.80;;;;;;4995288;28;20495;-88
2021/07/19 00:51:12;;;;;;;20.53;9.50;;;22.40;51.20;;;;;;4994983;28;20470;-88
2021/07/19 00:53:39;;;;;;;19.90;9.23;;;22.40;51.40;;;;;;4994667;28;20514;-88
2021/07/19 00:56:07;;;;;;;21.50;9.60;;;22.50;51.30;;;;;;4994408;28;20578;-88
2021/07/19 00:58:37;;;;;;;15.33;9.13;;;22.30;51.80;;;;;;4992328;28;20503;-88
2021/07/19 01:01:04;;;;;;;18.90;9.23;;;22.40;51.20;;;;;;4994666;28;20459;-88
2021/07/19 01:03:31;;;;;;;19.27;8.67;;;22.50;51.40;;;;;;4998529;28;20513;-88
2021/07/19 01:06:02;;;;;;;19.00;8.27;;;22.50;50.80;;;;;;4994659;28;20522;-88
2021/07/19 01:08:29;;;;;;;9.37;6.93;;;22.70;50.90;;;;;;4993741;28;20534;-88
2021/07/19 01:10:57;;;;;;;16.70;8.13;;;22.70;50.10;;;;;;4992423;28;20470;-88
2021/07/19 01:13:23;;;;;;;19.10;8.43;;;22.70;50.30;;;;;;4983690;28;20468;-88
2021/07/19 01:15:51;;;;;;;17.77;9.63;;;22.90;50.10;;;;;;4976404;28;20471;-88
2021/07/19 01:18:18;;;;;;;13.27;8.50;;;22.90;49.80;;;;;;4975563;28;20452;-88
2021/07/19 01:21:33;;;;;;;28.30;15.20;;;22.70;50.10;;;;;;4987964;28;20898;-88
2021/07/19 01:24:24;;;;;;;25.37;11.83;;;22.60;50.30;;;;;;4913156;29;20545;-88
2021/07/19 01:27:22;;;;;;;18.43;10.53;;;22.50;50.80;;;;;;4975455;28;20483;-88
2021/07/19 01:29:52;;;;;;;14.43;9.50;;;22.30;50.90;;;;;;4984457;28;20579;-88
2021/07/19 01:32:20;;;;;;;15.90;9.73;;;22.30;51.30;;;;;;4994441;28;20469;-88
2021/07/19 01:34:49;;;;;;;18.53;10.43;;;22.20;51.50;;;;;;4995022;28;20447;-88
2021/07/19 01:37:17;;;;;;;15.17;9.70;;;22.00;52.10;;;;;;4994572;28;20548;-88
2021/07/19 01:39:45;;;;;;;19.63;11.63;;;22.00;52.60;;;;;;4994560;28;20461;-88
2021/07/19 01:42:13;;;;;;;14.73;8.50;;;21.70;53.20;;;;;;4997099;28;20485;-88
2021/07/19 01:44:41;;;;;;;22.50;11.30;;;21.90;53.00;;;;;;4998656;28;20471;-88
2021/07/19 01:47:10;;;;;;;12.07;8.43;;;22.00;52.20;;;;;;4998123;28;20499;-88
2021/07/19 01:49:39;;;;;;;14.47;8.60;;;22.10;52.30;;;;;;4998317;28;20542;-88
2021/07/19 01:52:07;;;;;;;15.73;9.37;;;22.30;51.60;;;;;;4998240;28;20505;-88
2021/07/19 01:54:35;;;;;;;15.80;8.43;;;22.40;51.40;;;;;;4998290;28;20533;-88
2021/07/19 01:57:03;;;;;;;17.07;9.03;;;22.20;51.50;;;;;;4999996;28;20993;-88
2021/07/19 01:59:31;;;;;;;16.60;8.43;;;22.00;52.30;;;;;;5001543;28;20533;-88
2021/07/19 02:01:58;;;;;;;14.30;7.67;;;22.10;51.30;;;;;;4998348;28;20544;-88
2021/07/19 02:04:26;;;;;;;13.10;8.33;;;22.20;52.40;;;;;;4998974;28;20461;-88
2021/07/19 02:06:54;;;;;;;17.00;8.50;;;22.20;51.40;;;;;;4998032;28;20526;-88
2021/07/19 02:09:22;;;;;;;14.20;8.40;;;22.30;51.50;;;;;;4997592;28;20949;-88
2021/07/19 02:11:49;;;;;;;10.23;7.40;;;22.50;51.40;;;;;;4997923;28;20546;-88
2021/07/19 02:14:18;;;;;;;13.30;7.97;;;22.70;50.70;;;;;;4998607;28;20886;-88
2021/07/19 02:16:51;;;;;;;11.87;7.80;;;22.50;50.50;;;;;;4997238;28;20498;-88
2021/07/19 02:19:18;;;;;;;19.83;8.97;;;22.40;50.90;;;;;;4997825;28;20471;-88
2021/07/19 02:21:48;;;;;;;16.17;8.30;;;22.00;51.30;;;;;;4997572;28;20435;-88
2021/07/19 02:24:17;;;;;;;17.77;8.03;;;22.00;51.60;;;;;;4997668;28;20501;-88
2021/07/19 02:26:44;;;;;;;11.57;8.23;;;22.00;51.60;;;;;;4997521;28;20516;-88
2021/07/19 02:29:11;;;;;;;15.10;9.17;;;21.80;52.30;;;;;;4997773;28;20542;-88
2021/07/19 02:31:40;;;;;;;16.00;9.13;;;21.80;52.60;;;;;;4997377;28;20524;-88
2021/07/19 02:34:07;;;;;;;13.17;8.20;;;22.10;52.00;;;;;;4997752;28;20476;-88
2021/07/19 02:36:34;;;;;;;14.60;8.87;;;22.30;51.10;;;;;;4996604;28;22328;-89
2021/07/19 02:39:05;;;;;;;17.10;10.03;;;22.00;51.80;;;;;;4997530;28;20831;-88
2021/07/19 02:41:32;;;;;;;12.90;8.90;;;21.50;53.10;;;;;;4997880;28;20822;-88
2021/07/19 02:44:04;;;;;;;20.93;9.40;;;21.40;53.00;;;;;;4997927;28;20490;-88
2021/07/19 02:46:31;;;;;;;12.80;8.00;;;21.30;53.30;;;;;;4998207;28;20557;-88
2021/07/19 02:49:00;;;;;;;41.97;9.17;;;21.30;54.10;;;;;;4999139;28;20523;-88
2021/07/19 02:51:31;;;;;;;18.70;8.70;;;21.00;53.80;;;;;;5000837;28;20439;-88
2021/07/19 02:54:00;;;;;;;22.03;8.90;;;20.90;54.50;;;;;;4999374;28;20443;-87
2021/07/19 02:56:30;;;;;;;19.57;9.17;;;21.00;54.40;;;;;;4999471;28;20462;-88
2021/07/19 02:58:57;;;;;;;15.10;7.63;;;21.30;53.60;;;;;;4998401;28;20506;-88
2021/07/19 03:01:25;;;;;;;17.70;7.90;;;21.50;53.30;;;;;;4999666;28;20433;-88
2021/07/19 03:03:54;;;;;;;15.00;9.17;;;21.40;52.90;;;;;;5000114;28;20482;-88
2021/07/19 03:06:27;;;;;;;12.07;8.20;;;21.40;52.90;;;;;;5000145;28;20478;-88
2021/07/19 03:08:56;;;;;;;15.00;7.80;;;21.20;53.40;;;;;;5008711;28;20427;-88
2021/07/19 03:11:35;;;;;;;13.80;8.17;;;21.40;53.40;;;;;;5021090;28;20443;-88
2021/07/19 03:14:04;;;;;;;16.40;8.77;;;21.70;53.20;;;;;;5021042;28;20419;-88
2021/07/19 03:16:31;;;;;;;10.87;7.50;;;21.70;52.20;;;;;;5020873;28;20462;-87
2021/07/19 03:19:01;;;;;;;11.70;7.93;;;21.50;53.00;;;;;;5019981;28;20443;-87
2021/07/19 03:21:29;;;;;;;17.20;8.60;;;21.30;52.80;;;;;;5020200;28;20477;-88
2021/07/19 03:23:59;;;;;;;18.00;8.60;;;21.00;53.80;;;;;;5020450;28;20411;-88
2021/07/19 03:26:27;;;;;;;13.40;8.30;;;20.90;54.50;;;;;;5020549;28;20498;-87
2021/07/19 03:28:57;;;;;;;14.17;8.03;;;20.80;54.50;;;;;;5002979;28;20866;-88
2021/07/19 03:31:25;;;;;;;14.53;8.43;;;20.80;55.00;;;;;;5018970;28;20450;-87
2021/07/19 03:33:53;;;;;;;13.37;8.97;;;20.90;54.60;;;;;;5020529;28;20523;-87
2021/07/19 03:36:21;;;;;;;14.83;8.10;;;21.10;54.00;;;;;;5019620;28;20435;-87
2021/07/19 03:38:49;;;;;;;12.87;7.77;;;21.30;53.50;;;;;;5019911;28;20448;-87
2021/07/19 03:41:16;;;;;;;15.40;7.77;;;21.40;52.90;;;;;;5008523;28;20447;-89
2021/07/19 03:43:46;;;;;;;13.70;7.53;;;21.30;52.90;;;;;;4995978;28;20857;-88
2021/07/19 03:46:14;;;;;;;11.83;8.40;;;21.20;53.40;;;;;;4998447;28;20554;-88
2021/07/19 03:48:42;;;;;;;18.03;8.53;;;21.10;53.30;;;;;;4997681;28;20466;-88
2021/07/19 03:51:10;;;;;;;15.87;9.03;;;20.60;54.10;;;;;;4996113;28;20879;-88
2021/07/19 03:53:38;;;;;;;14.03;9.30;;;20.30;55.30;;;;;;4995991;28;20443;-88
2021/07/19 03:56:06;;;;;;;18.90;8.63;;;20.30;55.40;;;;;;4996209;28;20483;-88
2021/07/19 03:58:33;;;;;;;19.93;9.03;;;20.40;55.00;;;;;;4995749;28;20439;-88
2021/07/19 04:01:01;;;;;;;10.03;7.27;;;20.40;55.10;;;;;;4996163;28;20517;-88
2021/07/19 04:03:33;;;;;;;15.77;8.60;;;20.50;55.90;;;;;;4995103;28;20933;-88
2021/07/19 04:06:02;;;;;;;22.20;9.03;;;20.50;54.90;;;;;;4995690;28;20475;-88
2021/07/19 04:08:33;;;;;;;12.77;9.00;;;20.60;54.90;;;;;;4995531;28;20482;-88
2021/07/19 04:11:00;;;;;;;14.00;8.87;;;20.60;54.80;;;;;;4995176;28;20455;-88
2021/07/19 04:13:29;;;;;;;14.30;8.60;;;20.70;54.60;;;;;;4996437;28;20487;-88
2021/07/19 04:15:58;;;;;;;14.53;7.80;;;21.10;53.30;;;;;;4996462;28;20879;-88
2021/07/19 04:18:25;;;;;;;11.13;7.50;;;21.60;53.50;;;;;;4996447;28;20459;-88
2021/07/19 04:20:56;;;;;;;21.37;7.20;;;21.40;52.60;;;;;;4996184;28;20822;-89
2021/07/19 04:23:24;;;;;;;15.93;8.33;;;21.20;53.20;;;;;;4996900;28;20447;-89
2021/07/19 04:25:51;;;;;;;12.53;7.80;;;21.00;53.30;;;;;;4996461;28;20463;-90
2021/07/19 04:28:21;;;;;;;20.40;7.67;;;20.90;53.30;;;;;;4996250;28;20479;-90
2021/07/19 04:30:49;;;;;;;9.80;6.40;;;21.20;53.70;;;;;;4996358;28;20455;-90
2021/07/19 04:33:17;;;;;;;11.27;7.37;;;21.70;53.20;;;;;;4996398;28;20441;-90
2021/07/19 04:35:45;;;;;;;10.20;6.63;;;21.90;52.00;;;;;;4996869;28;20537;-86
2021/07/19 04:38:15;;;;;;;18.73;7.83;;;22.10;51.90;;;;;;4996274;28;20458;-86
2021/07/19 04:40:45;;;;;;;10.43;6.70;;;21.90;51.70;;;;;;4995580;28;20486;-85
2021/07/19 04:43:13;;;;;;;24.13;6.40;;;21.90;52.10;;;;;;4975956;28;20902;-85
2021/07/19 04:45:40;;;;;;;13.47;7.23;;;22.20;51.30;;;;;;4975491;28;20527;-85
2021/07/19 04:48:07;;;;;;;11.80;6.70;;;22.10;51.10;;;;;;4975857;28;20494;-85
2021/07/19 04:50:34;;;;;;;14.83;7.37;;;21.90;51.50;;;;;;4976377;28;20458;-85
2021/07/19 04:53:02;;;;;;;24.23;7.03;;;21.90;51.80;;;;;;4988356;28;20454;-85
2021/07/19 04:55:31;;;;;;;12.60;7.63;;;22.30;51.70;;;;;;4994731;28;20451;-85
2021/07/19 04:58:00;;;;;;;17.87;7.70;;;22.60;50.80;;;;;;4994529;28;20507;-85
2021/07/19 05:00:28;;;;;;;11.87;6.87;;;22.80;50.00;;;;;;4995273;28;21019;-85
2021/07/19 05:02:56;;;;;;;20.67;7.90;;;23.00;49.20;;;;;;4995064;28;20494;-85
2021/07/19 05:05:26;;;;;;;9.73;6.70;;;22.70;49.60;;;;;;4994726;28;20440;-85
2021/07/19 05:07:55;;;;;;;16.03;7.63;;;22.60;50.20;;;;;;4993969;28;20493;-85
2021/07/19 05:10:23;;;;;;;14.97;8.90;;;22.80;49.80;;;;;;4994310;28;20462;-85
2021/07/19 05:12:54;;;;;;;16.27;6.93;;;22.90;49.10;;;;;;4995770;28;20509;-85
2021/07/19 05:15:22;;;;;;;14.60;7.90;;;23.10;49.10;;;;;;4993858;28;20439;-85
2021/07/19 05:17:49;;;;;;;12.87;7.73;;;23.10;48.50;;;;;;4993701;28;20554;-85
2021/07/19 05:20:18;;;;;;;26.93;11.93;;;23.30;48.50;;;;;;4994227;28;20475;-85
2021/07/19 05:22:49;;;;;;;16.73;7.50;;;23.20;48.60;;;;;;4994217;28;20467;-86
2021/07/19 05:25:18;;;;;;;13.10;7.70;;;23.00;49.20;;;;;;4993627;28;20466;-85
2021/07/19 05:28:07;;;;;;;13.30;7.40;;;23.40;48.70;;;;;;4993498;28;21000;-85
2021/07/19 05:30:35;;;;;;;14.27;7.40;;;23.00;49.70;;;;;;4993877;28;20463;-85
2021/07/19 05:33:02;;;;;;;8.90;6.03;;;22.90;50.20;;;;;;4993654;28;20877;-85
2021/07/19 05:35:30;;;;;;;14.63;7.53;;;23.10;49.80;;;;;;4993244;28;20447;-85
2021/07/19 05:37:57;;;;;;;19.30;7.50;;;23.00;50.10;;;;;;4993648;28;20482;-85
2021/07/19 05:40:24;;;;;;;12.97;6.93;;;23.10;50.20;;;;;;4994378;28;20998;-85
2021/07/19 05:42:51;;;;;;;13.30;7.77;;;23.20;49.80;;;;;;4994825;28;20455;-85
2021/07/19 05:45:19;;;;;;;14.00;7.40;;;23.40;50.90;;;;;;4995483;28;20493;-85
2021/07/19 05:47:46;;;;;;;14.70;6.47;;;24.50;51.10;;;;;;4995529;28;20976;-85
2021/07/19 05:50:13;;;;;;;12.33;6.77;;;25.70;48.20;;;;;;4994657;28;20455;-85
2021/07/19 05:52:40;;;;;;;10.90;6.17;;;27.30;46.50;;;;;;4993658;28;20459;-86
2021/07/19 05:55:08;;;;;;;13.30;6.20;;;28.20;41.40;;;;;;4994502;28;20439;-86
2021/07/19 05:57:36;;;;;;;16.83;5.77;;;29.30;39.20;;;;;;4994837;28;20980;-85
2021/07/19 06:00:07;;;;;;;13.90;6.50;;;30.20;40.00;;;;;;4994726;28;20593;-85
2021/07/19 06:02:35;;;;;;;12.43;5.57;;;31.10;36.00;;;;;;4994067;28;20482;-86
2021/07/19 06:05:02;;;;;;;9.30;5.53;;;31.50;36.50;;;;;;4980345;28;20439;-86
2021/07/19 06:07:29;;;;;;;13.30;6.80;;;31.80;35.80;;;;;;4975192;28;20515;-86
2021/07/19 06:09:56;;;;;;;19.00;6.20;;;32.70;33.80;;;;;;4975475;28;20580;-86
2021/07/19 06:12:23;;;;;;;11.17;6.00;;;33.30;32.50;;;;;;4975574;28;20887;-86
2021/07/19 06:14:49;;;;;;;11.63;6.30;;;33.40;32.50;;;;;;4975893;28;20484;-86
2021/07/19 06:17:16;;;;;;;12.70;5.90;;;33.60;30.50;;;;;;4975577;28;20551;-86
2021/07/19 06:19:45;;;;;;;9.53;6.50;;;34.30;30.30;;;;;;4994861;28;20778;-86
2021/07/19 06:22:13;;;;;;;8.53;5.90;;;34.20;29.70;;;;;;4995312;28;20599;-86
2021/07/19 06:24:40;;;;;;;18.47;6.23;;;34.70;29.30;;;;;;4995322;28;21023;-86
2021/07/19 06:27:08;;;;;;;16.63;5.90;;;34.60;29.10;;;;;;4996461;28;20553;-86
2021/07/19 06:29:35;;;;;;;12.93;6.50;;;34.60;28.60;;;;;;4999680;28;20505;-86
2021/07/19 06:32:02;;;;;;;9.77;6.03;;;34.40;28.40;;;;;;4998913;28;20534;-86
2021/07/19 06:34:29;;;;;;;9.23;5.70;;;34.80;28.00;;;;;;4999316;28;20486;-86
2021/07/19 06:36:57;;;;;;;9.50;5.97;;;35.80;27.30;;;;;;4999172;28;20470;-86
2021/07/19 06:39:24;;;;;;;14.73;5.10;;;36.20;26.70;;;;;;4998491;28;20537;-86
2021/07/19 06:41:51;;;;;;;7.20;5.03;;;35.50;25.90;;;;;;4998380;28;20450;-86
2021/07/19 06:44:18;;;;;;;6.70;4.03;;;35.80;26.50;;;;;;4998975;28;20454;-86
2021/07/19 06:46:45;;;;;;;12.27;5.37;;;36.30;25.30;;;;;;4998137;28;21022;-86
2021/07/19 06:49:12;;;;;;;7.50;5.03;;;36.80;25.00;;;;;;4998894;28;20541;-86
2021/07/19 06:51:39;;;;;;;23.33;5.77;;;36.50;24.90;;;;;;4998646;28;20451;-86
2021/07/19 06:54:07;;;;;;;9.50;5.00;;;36.40;25.00;;;;;;4998267;28;20888;-86
2021/07/19 06:56:34;;;;;;;13.53;5.57;;;36.60;25.20;;;;;;4996324;28;20518;-86
2021/07/19 06:59:01;;;;;;;6.37;4.27;;;36.70;24.50;;;;;;4997184;28;20446;-86
2021/07/19 07:01:28;;;;;;;13.33;4.53;;;36.40;24.50;;;;;;4997830;28;20493;-90
2021/07/19 07:03:55;;;;;;;8.30;4.43;;;36.50;25.00;;;;;;4998286;28;20943;-90
2021/07/19 07:06:22;;;;;;;5.80;4.70;;;36.10;25.20;;;;;;4997726;28;20470;-90
2021/07/19 07:08:48;;;;;;;6.70;4.57;;;36.60;24.50;;;;;;5001208;28;20540;-90
2021/07/19 07:11:17;;;;;;;7.07;4.63;;;35.90;24.80;;;;;;4999032;28;20936;-90
2021/07/19 07:13:44;;;;;;;8.50;4.77;;;36.80;24.30;;;;;;4997942;28;21013;-90
2021/07/19 07:16:10;;;;;;;6.73;4.43;;;36.40;24.90;;;;;;4996789;28;20470;-90
2021/07/19 07:18:37;;;;;;;7.73;4.93;;;36.80;24.00;;;;;;4996513;28;20482;-90
2021/07/19 07:21:04;;;;;;;6.07;4.20;;;36.60;24.30;;;;;;4996036;28;20749;-90
2021/07/19 07:23:31;;;;;;;7.97;4.40;;;37.00;24.00;;;;;;4996123;28;20509;-91
2021/07/19 07:25:58;;;;;;;10.90;5.63;;;36.50;24.10;;;;;;4995202;28;20569;-90
2021/07/19 07:28:27;;;;;;;9.70;4.70;;;37.10;23.90;;;;;;4997279;28;20594;-91
2021/07/19 07:30:54;;;;;;;10.47;4.53;;;37.40;23.50;;;;;;4996159;28;20434;-90
2021/07/19 07:33:21;;;;;;;8.77;5.37;;;37.30;22.90;;;;;;4996040;28;20484;-91
2021/07/19 07:35:50;;;;;;;7.43;5.57;;;37.20;23.60;;;;;;4995705;28;20455;-91
2021/07/19 07:38:17;;;;;;;6.07;4.37;;;36.50;24.10;;;;;;4995512;28;20461;-90
2021/07/19 07:40:44;;;;;;;9.37;5.23;;;36.70;24.00;;;;;;5014230;28;20498;-91
2021/07/19 07:43:11;;;;;;;8.77;4.60;;;37.40;23.60;;;;;;5019365;28;20434;-91
2021/07/19 07:45:39;;;;;;;9.83;5.50;;;36.30;24.00;;;;;;5018262;28;20450;-90
2021/07/19 07:48:07;;;;;;;10.80;4.80;;;36.90;24.00;;;;;;5019190;28;20478;-90
2021/07/19 07:50:34;;;;;;;6.27;5.00;;;36.70;24.30;;;;;;5019661;28;20438;-90
2021/07/19 07:53:01;;;;;;;6.50;5.10;;;36.40;24.50;;;;;;5019370;28;20430;-90
2021/07/19 07:55:27;;;;;;;9.23;5.60;;;36.60;24.40;;;;;;5018497;28;20426;-90
2021/07/19 07:57:54;;;;;;;21.00;5.30;;;36.90;24.00;;;;;;5018771;28;20438;-91
2021/07/19 08:00:21;;;;;;;12.63;6.00;;;37.20;24.00;;;;;;5018688;28;20512;-91
2021/07/19 08:02:50;;;;;;;7.70;4.73;;;37.10;23.60;;;;;;5019142;28;20438;-91
2021/07/19 08:05:17;;;;;;;5.37;4.50;;;37.00;23.60;;;;;;5018940;28;20477;-90
2021/07/19 08:07:44;;;;;;;15.23;5.50;;;37.20;23.10;;;;;;5016164;28;20482;-90
2021/07/19 08:10:11;;;;;;;6.93;4.60;;;36.90;23.70;;;;;;5004814;28;20462;-91
2021/07/19 08:12:38;;;;;;;12.97;4.90;;;36.40;24.40;;;;;;4994425;28;20561;-91
2021/07/19 08:15:06;;;;;;;11.73;4.70;;;36.80;23.60;;;;;;4994613;28;20546;-91
2021/07/19 08:17:34;;;;;;;9.63;5.43;;;37.20;23.10;;;;;;4994537;28;20525;-91
2021/07/19 08:20:02;;;;;;;9.20;4.97;;;37.30;23.30;;;;;;4994997;28;20466;-90
2021/07/19 08:22:31;;;;;;;12.47;5.10;;;36.20;25.00;;;;;;4998683;28;20450;-90
2021/07/19 08:24:58;;;;;;;8.90;5.13;;;35.90;25.00;;;;;;5000799;28;20809;-90
2021/07/19 08:27:25;;;;;;;7.63;4.47;;;35.90;24.90;;;;;;4999864;28;20470;-90
2021/07/19 08:29:52;;;;;;;14.77;5.33;;;36.90;24.10;;;;;;5001426;28;20478;-91
2021/07/19 08:32:20;;;;;;;10.60;4.80;;;36.80;24.40;;;;;;5003984;28;20454;-91
2021/07/19 08:34:48;;;;;;;8.07;4.60;;;37.10;24.70;;;;;;5004063;28;20466;-90
2021/07/19 08:37:17;;;;;;;16.33;5.23;;;37.80;23.30;;;;;;4999933;28;20482;-90
2021/07/19 08:39:44;;;;;;;7.63;4.93;;;37.60;22.50;;;;;;5004409;28;20434;-90
2021/07/19 08:42:12;;;;;;;15.23;4.77;;;37.10;23.50;;;;;;5002023;28;20482;-90
2021/07/19 08:44:39;;;;;;;8.73;4.40;;;36.70;23.60;;;;;;5003330;28;20462;-90
2021/07/19 08:47:08;;;;;;;9.33;4.87;;;36.60;23.90;;;;;;5015908;28;20485;-90
2021/07/19 08:49:35;;;;;;;11.30;4.43;;;36.80;23.70;;;;;;5019116;28;20493;-91
2021/07/19 08:52:03;;;;;;;9.37;4.40;;;37.00;23.50;;;;;;5017395;28;20434;-91
2021/07/19 08:54:34;;;;;;;6.93;4.87;;;37.40;22.80;;;;;;5009689;28;20457;-90
2021/07/19 08:57:02;;;;;;;10.23;4.73;;;36.30;24.40;;;;;;5012925;28;20478;-90
2021/07/19 08:59:30;;;;;;;13.03;4.53;;;36.20;24.30;;;;;;5023492;28;20470;-90
2021/07/19 09:02:01;;;;;;;7.70;4.70;;;36.00;24.60;;;;;;5018701;28;20452;-91
2021/07/19 09:04:29;;;;;;;11.40;4.30;;;35.80;25.40;;;;;;5018628;28;20447;-89
2021/07/19 09:06:56;;;;;;;5.30;4.00;;;35.70;25.00;;;;;;5007511;28;20454;-89
2021/07/19 09:09:29;;;;;;;9.87;4.33;;;35.90;24.30;;;;;;4994592;28;20976;-89
2021/07/19 09:11:58;;;;;;;7.97;4.70;;;35.40;24.80;;;;;;4994171;28;20944;-89
2021/07/19 09:14:26;;;;;;;9.17;4.00;;;34.90;25.80;;;;;;4994609;28;20450;-88
2021/07/19 09:16:54;;;;;;;6.80;4.50;;;34.60;26.60;;;;;;4994198;28;20502;-89
2021/07/19 09:19:22;;;;;;;7.00;4.30;;;34.00;27.30;;;;;;4994501;28;20455;-89
2021/07/19 09:21:52;;;;;;;7.80;4.40;;;33.80;27.40;;;;;;4994056;28;21036;-89
2021/07/19 09:24:21;;;;;;;6.40;4.07;;;33.90;27.40;;;;;;4994110;28;20447;-89
2021/07/19 09:26:50;;;;;;;5.93;4.57;;;33.90;27.50;;;;;;4994791;28;20549;-88
2021/07/19 09:29:20;;;;;;;4.97;3.80;;;33.70;27.40;;;;;;4994136;28;20486;-88
2021/07/19 09:31:51;;;;;;;13.70;4.30;;;33.10;27.70;;;;;;4993667;28;20431;-89
2021/07/19 09:34:20;;;;;;;7.33;3.90;;;31.70;29.80;;;;;;4994473;28;20427;-89
2021/07/19 09:36:58;;;;;;;7.63;4.30;;;32.10;29.30;;;;;;4999967;28;20503;-89
2021/07/19 09:39:26;;;;;;;8.23;3.90;;;32.50;28.20;;;;;;4998420;28;20470;-90
2021/07/19 09:42:04;;;;;;;5.30;3.97;;;31.90;28.30;;;;;;4996647;28;20538;-89
2021/07/19 09:44:33;;;;;;;6.80;4.27;;;31.40;29.50;;;;;;4995624;28;20431;-90
2021/07/19 09:47:01;;;;;;;5.30;4.17;;;31.40;29.00;;;;;;4994835;28;20606;-90
2021/07/19 09:49:32;;;;;;;13.47;4.07;;;31.60;30.00;;;;;;4994905;28;20488;-90
2021/07/19 09:52:00;;;;;;;6.07;4.07;;;31.00;30.80;;;;;;4994327;28;20478;-90
2021/07/19 09:54:38;;;;;;;8.83;3.93;;;31.60;30.20;;;;;;4994926;28;20874;-90
2021/07/19 09:57:06;;;;;;;5.63;3.30;;;31.70;29.90;;;;;;4995538;28;20969;-91
2021/07/19 09:59:37;;;;;;;8.53;3.97;;;32.10;28.80;;;;;;4994679;28;20470;-90
2021/07/19 10:02:06;;;;;;;5.80;3.90;;;32.30;28.50;;;;;;4995666;28;20443;-90
2021/07/19 10:04:42;;;;;;;6.47;3.57;;;32.10;28.40;;;;;;4998753;28;20923;-90
2021/07/19 10:07:09;;;;;;;6.17;4.50;;;32.40;28.30;;;;;;4999174;28;20454;-91
2021/07/19 10:09:38;;;;;;;8.80;4.10;;;32.00;28.30;;;;;;5000003;28;20490;-90
2021/07/19 10:12:14;;;;;;;7.80;4.40;;;31.90;28.70;;;;;;4998089;28;20449;-91
2021/07/19 10:14:44;;;;;;;8.00;4.33;;;32.10;28.60;;;;;;5001512;28;20447;-89
2021/07/19 10:17:12;;;;;;;6.03;4.17;;;31.90;28.80;;;;;;5000474;28;20467;-89
2021/07/19 10:19:41;;;;;;;4.27;3.80;;;31.80;29.10;;;;;;4996700;28;20528;-89
2021/07/19 10:22:08;;;;;;;6.00;4.20;;;31.80;29.10;;;;;;4998325;28;20451;-89
2021/07/19 10:24:35;;;;;;;17.33;4.93;;;31.80;28.50;;;;;;5001173;28;20442;-91
2021/07/19 10:27:02;;;;;;;13.53;5.30;;;31.70;29.10;;;;;;4999057;28;20462;-90
2021/07/19 10:29:30;;;;;;;6.37;4.63;;;30.20;30.80;;;;;;5002291;28;20521;-90
2021/07/19 10:31:58;;;;;;;11.13;4.83;;;29.40;33.10;;;;;;4999473;28;20894;-91
2021/07/19 10:34:26;;;;;;;10.33;4.37;;;29.90;32.30;;;;;;4998151;28;20482;-90
2021/07/19 10:36:55;;;;;;;5.93;4.40;;;30.40;31.20;;;;;;4998708;28;20474;-90
2021/07/19 10:39:37;;;;;;;6.47;4.60;;;30.90;30.50;;;;;;4999453;28;20447;-89
2021/07/19 10:42:06;;;;;;;7.07;4.50;;;31.30;30.00;;;;;;4999756;28;20490;-90
2021/07/19 10:44:35;;;;;;;11.70;4.03;;;30.90;30.80;;;;;;5000910;28;20553;-91
2021/07/19 10:47:19;;;;;;;10.53;4.37;;;31.20;30.00;;;;;;4999455;28;20473;-90
2021/07/19 10:49:56;;;;;;;8.70;4.40;;;31.10;29.60;;;;;;4997564;28;20470;-91
2021/07/19 10:52:31;;;;;;;8.03;3.60;;;30.50;30.50;;;;;;4998718;28;20462;-91
2021/07/19 10:54:59;;;;;;;11.93;5.10;;;30.40;30.40;;;;;;5000049;28;20919;-90
2021/07/19 10:57:36;;;;;;;9.63;4.10;;;31.00;30.20;;;;;;4996750;28;20506;-90
2021/07/19 11:00:07;;;;;;;5.90;4.40;;;30.80;30.10;;;;;;4996994;28;20458;-90
2021/07/19 11:02:35;;;;;;;7.70;4.33;;;30.30;31.00;;;;;;4996825;28;20984;-90
2021/07/19 11:05:02;;;;;;;18.83;4.20;;;29.90;30.10;;;;;;4997393;28;20498;-90
2021/07/19 11:07:40;;;;;;;9.27;5.07;;;30.30;30.40;;;;;;4997369;28;20920;-90
2021/07/19 11:10:15;;;;;;;6.70;3.83;;;30.50;30.50;;;;;;5000119;28;20470;-91
2021/07/19 11:12:49;;;;;;;14.53;5.07;;;30.70;30.60;;;;;;4997330;28;20962;-90
2021/07/19 11:15:16;;;;;;;9.10;4.87;;;30.30;30.30;;;;;;4998119;28;20432;-90
2021/07/19 11:17:44;;;;;;;6.40;4.70;;;30.70;31.30;;;;;;4997553;28;20514;-90
2021/07/19 11:20:13;;;;;;;10.57;4.83;;;29.40;34.30;;;;;;4996927;28;20450;-90
2021/07/19 11:22:40;;;;;;;8.83;4.63;;;29.50;33.60;;;;;;4997372;28;20455;-90
2021/07/19 11:25:10;;;;;;;9.63;4.40;;;29.30;34.80;;;;;;4997981;28;20453;-89
2021/07/19 11:27:39;;;;;;;7.97;4.90;;;29.60;33.40;;;;;;4997776;28;20499;-89
2021/07/19 11:30:08;;;;;;;15.23;4.30;;;29.60;32.50;;;;;;4998591;28;20525;-88
2021/07/19 11:32:36;;;;;;;6.10;3.80;;;29.60;32.30;;;;;;4997848;28;20535;-89
2021/07/19 11:35:10;;;;;;;12.13;4.50;;;30.40;31.50;;;;;;4999520;28;20921;-90
2021/07/19 11:37:40;;;;;;;7.13;4.47;;;29.50;32.40;;;;;;4997421;28;20994;-90
2021/07/19 11:40:09;;;;;;;8.83;4.40;;;29.90;31.90;;;;;;4997007;28;20580;-89
2021/07/19 11:42:41;;;;;;;5.10;3.70;;;30.20;31.00;;;;;;4996408;28;20445;-90
2021/07/19 11:45:11;;;;;;;7.60;4.30;;;30.20;30.30;;;;;;4996925;28;20502;-89
2021/07/19 11:47:43;;;;;;;11.83;4.77;;;30.40;30.50;;;;;;4996141;28;20565;-90
2021/07/19 11:50:13;;;;;;;7.27;4.70;;;30.20;32.20;;;;;;4996362;28;20475;-90
2021/07/19 11:52:43;;;;;;;7.90;4.53;;;29.60;31.90;;;;;;4997403;28;20447;-90
2021/07/19 11:55:12;;;;;;;9.43;4.80;;;29.60;32.10;;;;;;4994644;28;20466;-89
2021/07/19 11:57:44;;;;;;;8.70;4.40;;;29.80;30.10;;;;;;5006210;28;20531;-89
2021/07/19 12:00:13;;;;;;;11.60;3.87;;;29.70;31.40;;;;;;5020057;28;20423;-90
2021/07/19 12:02:40;;;;;;;13.17;4.67;;;30.00;30.50;;;;;;5019792;28;20450;-90
2021/07/19 12:05:15;;;;;;;11.23;4.80;;;30.50;30.50;;;;;;5018115;28;20431;-86
2021/07/19 12:07:42;;;;;;;5.67;4.07;;;30.90;29.50;;;;;;5013721;28;20550;-87
2021/07/19 12:10:10;;;;;;;10.83;3.90;;;31.10;29.80;;;;;;4995808;28;20572;-87
2021/07/19 12:12:37;;;;;;;7.80;4.40;;;30.80;30.00;;;;;;4995441;28;20509;-86
2021/07/19 12:15:06;;;;;;;7.20;3.90;;;31.00;30.40;;;;;;4995668;28;20458;-86
2021/07/19 12:17:35;;;;;;;9.37;4.00;;;31.40;29.50;;;;;;4995621;28;20525;-87
2021/07/19 12:20:03;;;;;;;7.00;4.10;;;31.40;28.90;;;;;;4995160;28;20471;-86
2021/07/19 12:22:32;;;;;;;13.07;4.17;;;31.20;29.30;;;;;;4994604;28;20963;-86
2021/07/19 12:25:00;;;;;;;4.97;3.73;;;30.90;29.40;;;;;;4994497;28;20459;-86
2021/07/19 12:27:26;;;;;;;7.53;3.87;;;29.70;30.00;;;;;;4994736;28;20554;-86
2021/07/19 12:29:53;;;;;;;7.03;3.90;;;29.80;30.70;;;;;;4995695;28;20562;-86
2021/07/19 12:32:20;;;;;;;6.20;4.23;;;30.30;30.40;;;;;;4994696;28;20490;-86
2021/07/19 12:34:48;;;;;;;8.20;3.80;;;30.80;29.60;;;;;;4995138;28;20478;-86
2021/07/19 12:37:16;;;;;;;12.80;3.90;;;31.00;28.50;;;;;;4995078;28;20505;-86
2021/07/19 12:39:50;;;;;;;10.00;4.47;;;31.40;28.40;;;;;;5004112;28;20501;-86
2021/07/19 12:42:18;;;;;;;6.40;3.53;;;31.30;28.30;;;;;;4996743;28;20518;-86
2021/07/19 12:44:46;;;;;;;11.00;3.67;;;31.30;29.80;;;;;;4994981;28;20977;-86
2021/07/19 12:47:17;;;;;;;8.33;3.80;;;30.70;29.50;;;;;;4994856;28;20553;-85
2021/07/19 12:49:44;;;;;;;11.63;3.90;;;30.70;29.50;;;;;;4994911;28;20467;-85